TRINITY LAKE (CLE)

Elevation: 2370' · TRINITY R basin · Operator: US Bureau of Reclamation

Provisional data, subject to change.
Query executed Saturday at 6:35:13

Select a sensor type for a plot of data.
Note: Reservoir Flows are daily averages.

Earlier

Date RES ELE    STORAGE    RES CHG    OUTFLOW    INFLOW    EVAP    FNF    RIV REL    PPT INC    SPILL    DIS PWR   
 FEET   AF   AF   CFS   CFS   CFS   CFS   CFS   INCHES   CFS   CFS  
11/11/2016 2262.24 1064694 1117 278 855 14 855 0 0.00 0 278
11/12/2016 2262.44 1066556 1862 231 1175 5 1175 0 0.14 0 231
11/13/2016 2262.57 1067766 1210 237 874 27 874 0 0.00 0 237
11/14/2016 2262.71 1069069 1303 229 894 8 894 0 0.00 0 229
11/15/2016 2262.89 1070745 1676 360 1213 8 1213 0 0.42 0 360
11/16/2016 2262.99 1071676 931 533 1032 30 1032 0 0.01 0 533
11/17/2016 2263.05 1072237 561 602 885 0 885 0 0.00 0 602
11/18/2016 2263.14 1073081 844 504 938 8 938 0 0.00 0 504
11/19/2016 2263.46 1076079 2998 532 2062 19 2062 0 0.44 0 532
11/20/2016 2263.76 1078889 2810 684 2118 17 2118 0 0.23 0 684
11/21/2016 2264.04 1081515 2626 595 1955 36 1955 0 0.16 0 595
11/22/2016 2264.33 1084250 2735 400 1779 0 1779 0 0.00 0 400
11/23/2016 2264.67 1087455 3205 364 1986 6 1986 0 0.59 0 364
11/24/2016 2264.82 1088870 1415 808 1529 8 1529 0 0.00 0 808
11/25/2016 2265.07 1091231 2361 606 1841 45 1841 0 0.03 0 606
11/26/2016 2265.46 1094932 3701 380 2246 0 2246 0 0.31 0 380
11/27/2016 2265.76 1097779 2847 455 1915 25 1915 0 0.50 0 455
11/28/2016 2266.05 1100535 2756 278 1675 8 1675 0 0.20 0 278
11/29/2016 2266.22 1102158 1623 527 1353 8 1353 0 0.20 0 527
11/30/2016 2266.43 1104164 2006 274 1293 8 1293 1 0.08 0 273
12/01/2016 2266.60 1105787 1623 358 1184 8 1184 0 0.08 0 358
12/02/2016 2266.76 1107315 1528 221 997 6 997 0 0.00 0 221
12/03/2016 2266.94 1109034 1719 187 1065 11 1065 0 0.00 0 187
12/04/2016 2267.06 1110184 1150 438 1035 17 1035 0 0.00 0 438
12/05/2016 2267.18 1111337 1153 302 889 6 889 0 0.00 0 302
12/06/2016 2267.33 1112779 1442 226 953 0 953 0 0.00 0 226
12/07/2016 2267.45 1113932 1153 600 1181 0 1181 0 0.00 0 600
12/08/2016 2267.59 1115277 1345 526 1204 0 1204 0 0.56 0 526
12/09/2016 2267.83 1117584 2307 527 1690 0 -- 0 0.08 0 527
12/10/2016 -- -- -- -- -- -- -- -- -- -- --

Later | Latest

Warning! This data is preliminary and subject to revision.

Show CLE Map | Plot CLE Data | 1 Month CLE Data | Real-Time CLE Data | CLE Info